createdAt,value
2018-01-15T00:00:28.959Z,8.50
2018-01-15T00:02:56.637Z,8.13
2018-01-15T00:05:24.085Z,9.50
2018-01-15T00:07:51.523Z,9.60
2018-01-15T00:10:18.987Z,9.10
2018-01-15T00:12:46.430Z,8.50
2018-01-15T00:15:13.882Z,9.10
2018-01-15T00:17:41.309Z,7.97
2018-01-15T00:20:08.758Z,9.07
2018-01-15T00:22:36.199Z,7.53
2018-01-15T00:25:03.658Z,10.00
2018-01-15T00:27:31.175Z,8.77
2018-01-15T00:29:59.599Z,7.90
2018-01-15T00:32:27.042Z,8.97
2018-01-15T00:34:54.493Z,7.87
2018-01-15T00:37:21.933Z,9.00
2018-01-15T00:39:49.369Z,8.80
2018-01-15T00:42:17.598Z,10.43
2018-01-15T00:44:45.052Z,7.82
2018-01-15T00:47:13.254Z,8.97
2018-01-15T00:49:40.684Z,7.80
2018-01-15T00:52:08.138Z,8.27
2018-01-15T00:54:36.350Z,8.00
2018-01-15T00:57:03.812Z,8.07
2018-01-15T00:59:31.245Z,8.27
2018-01-15T01:01:58.730Z,7.93
2018-01-15T01:04:26.954Z,8.30
2018-01-15T01:06:54.410Z,8.87
2018-01-15T01:09:21.864Z,9.23
2018-01-15T01:11:49.310Z,7.80
2018-01-15T01:14:16.759Z,8.80
2018-01-15T01:16:44.197Z,9.17
2018-01-15T01:19:12.540Z,7.70
2018-01-15T01:21:39.973Z,8.50
2018-01-15T01:24:07.645Z,8.20
2018-01-15T01:26:35.084Z,7.77
2018-01-15T01:29:02.555Z,7.67
2018-01-15T01:31:29.999Z,8.20
2018-01-15T01:33:57.423Z,7.63
2018-01-15T01:36:25.659Z,7.57
2018-01-15T01:38:53.082Z,7.55
2018-01-15T01:41:20.523Z,9.23
2018-01-15T01:43:47.969Z,8.90
2018-01-15T01:46:16.194Z,8.27
2018-01-15T01:48:43.628Z,7.70
2018-01-15T01:51:11.082Z,7.57
2018-01-15T01:53:38.522Z,8.60
2018-01-15T01:56:06.940Z,8.57
2018-01-15T01:58:34.385Z,8.20
2018-01-15T02:01:01.818Z,8.63
2018-01-15T02:03:29.266Z,7.67
2018-01-15T02:05:57.498Z,7.77
2018-01-15T02:08:24.954Z,7.83
2018-01-15T02:10:52.395Z,8.33
2018-01-15T02:13:19.850Z,8.23
2018-01-15T02:15:47.294Z,8.67
2018-01-15T02:18:14.727Z,7.37
2018-01-15T02:20:42.945Z,7.77
2018-01-15T02:23:11.196Z,8.27
2018-01-15T02:25:38.641Z,7.97
2018-01-15T02:28:06.888Z,9.03
2018-01-15T02:30:34.338Z,8.23
2018-01-15T02:33:01.777Z,8.80
2018-01-15T02:35:29.232Z,8.10
2018-01-15T02:37:56.675Z,7.57
2018-01-15T02:40:24.120Z,9.17
2018-01-15T02:42:51.574Z,8.63
2018-01-15T02:45:19.019Z,8.27
2018-01-15T02:47:46.460Z,8.80
2018-01-15T02:50:14.687Z,9.30
2018-01-15T02:52:42.133Z,8.33
2018-01-15T02:55:09.570Z,8.93
2018-01-15T02:57:37.019Z,8.07
2018-01-15T03:00:05.551Z,9.27
2018-01-15T03:02:33.811Z,7.27
2018-01-15T03:05:01.246Z,8.83
2018-01-15T03:07:28.699Z,7.47
2018-01-15T03:09:56.263Z,8.43
2018-01-15T03:12:23.709Z,8.17
2018-01-15T03:14:51.155Z,8.17
2018-01-15T03:17:19.379Z,10.20
2018-01-15T03:19:46.800Z,9.37
2018-01-15T03:22:15.005Z,8.10
2018-01-15T03:24:42.441Z,7.70
2018-01-15T03:27:09.880Z,8.60
2018-01-15T03:29:38.079Z,9.33
2018-01-15T03:32:05.579Z,6.80
2018-01-15T03:34:33.025Z,10.53
2018-01-15T03:37:00.474Z,9.37
2018-01-15T03:39:27.934Z,9.20
2018-01-15T03:41:55.380Z,8.90
2018-01-15T03:44:22.834Z,8.37
2018-01-15T03:46:50.281Z,7.97
2018-01-15T03:49:17.739Z,8.03
2018-01-15T03:51:45.173Z,9.00
2018-01-15T03:54:13.381Z,9.00
2018-01-15T03:56:40.810Z,9.50
2018-01-15T03:59:08.268Z,9.33
2018-01-15T04:01:36.474Z,10.00
2018-01-15T04:04:04.358Z,9.67
2018-01-15T04:06:31.794Z,9.70
2018-01-15T04:08:59.271Z,10.13
2018-01-15T04:11:26.718Z,9.60
2018-01-15T04:13:54.177Z,10.77
2018-01-15T04:16:21.631Z,8.70
2018-01-15T04:18:49.070Z,9.43
2018-01-15T04:21:16.498Z,8.70
2018-01-15T04:23:44.711Z,8.60
2018-01-15T04:26:12.165Z,10.27
2018-01-15T04:28:39.610Z,10.30
2018-01-15T04:31:07.056Z,9.40
2018-01-15T04:33:35.267Z,8.67
2018-01-15T04:36:02.942Z,10.93
2018-01-15T04:38:30.382Z,9.13
2018-01-15T04:40:57.822Z,8.40
2018-01-15T04:43:25.294Z,10.40
2018-01-15T04:45:52.727Z,9.80
2018-01-15T04:48:20.182Z,10.20
2018-01-15T04:50:47.622Z,9.33
2018-01-15T04:53:15.850Z,9.60
2018-01-15T04:55:43.294Z,8.60
2018-01-15T04:58:10.956Z,10.20
2018-01-15T05:00:38.415Z,9.40
2018-01-15T05:03:05.849Z,9.13
2018-01-15T05:05:33.282Z,9.80
2018-01-15T05:08:01.498Z,9.10
2018-01-15T05:10:28.943Z,10.93
2018-01-15T05:12:56.414Z,10.13
2018-01-15T05:15:23.852Z,9.23
2018-01-15T05:17:51.281Z,9.27
2018-01-15T05:20:18.771Z,8.60
2018-01-15T05:22:46.207Z,9.10
2018-01-15T05:25:14.455Z,8.83
2018-01-15T05:27:41.890Z,9.70
2018-01-15T05:30:09.347Z,8.37
2018-01-15T05:32:36.791Z,9.90
2018-01-15T05:35:04.254Z,9.93
2018-01-15T05:37:31.674Z,10.30
2018-01-15T05:39:59.886Z,10.20
2018-01-15T05:42:27.317Z,9.50
2018-01-15T05:44:54.773Z,8.32
2018-01-15T05:47:22.210Z,8.87
2018-01-15T05:49:50.434Z,8.93
2018-01-15T05:52:17.880Z,8.57
2018-01-15T05:54:45.323Z,9.73
2018-01-15T05:57:12.770Z,8.30
2018-01-15T05:59:40.979Z,7.83
2018-01-15T06:02:08.399Z,8.60
2018-01-15T06:04:36.594Z,8.50
2018-01-15T06:07:04.029Z,9.60
2018-01-15T06:09:32.226Z,8.53
2018-01-15T06:11:59.673Z,10.67
2018-01-15T06:14:27.123Z,9.57
2018-01-15T06:16:54.576Z,9.60
2018-01-15T06:19:22.786Z,9.90
2018-01-15T06:21:50.251Z,9.17
2018-01-15T06:24:17.692Z,8.40
2018-01-15T06:26:45.131Z,8.70
2018-01-15T06:29:12.584Z,9.73
2018-01-15T06:31:40.787Z,9.53
2018-01-15T06:34:08.232Z,10.20
2018-01-15T06:36:35.682Z,8.50
2018-01-15T06:39:03.143Z,10.60
2018-01-15T06:41:30.579Z,8.97
2018-01-15T06:43:58.792Z,9.20
2018-01-15T06:46:26.221Z,8.90
2018-01-15T06:48:53.680Z,9.23
2018-01-15T06:51:21.113Z,8.33
2018-01-15T06:53:49.334Z,9.00
2018-01-15T06:56:16.783Z,10.90
2018-01-15T06:58:44.225Z,10.13
2018-01-15T07:01:11.656Z,9.20
2018-01-15T07:03:39.876Z,11.60
2018-01-15T07:06:07.304Z,10.70
2018-01-15T07:08:35.526Z,9.53
2018-01-15T07:11:02.966Z,9.10
2018-01-15T07:13:30.423Z,10.70
2018-01-15T07:15:57.866Z,10.03
2018-01-15T07:18:25.317Z,11.20
2018-01-15T07:20:52.748Z,9.40
2018-01-15T07:23:20.999Z,10.70
2018-01-15T07:25:48.398Z,10.27
2018-01-15T07:28:16.609Z,9.30
2018-01-15T07:30:44.044Z,9.40
2018-01-15T07:33:11.495Z,9.80
2018-01-15T07:35:38.941Z,8.77
2018-01-15T07:38:07.136Z,8.63
2018-01-15T07:40:34.578Z,9.17
2018-01-15T07:43:02.788Z,9.73
2018-01-15T07:45:30.227Z,10.40
2018-01-15T07:47:57.664Z,9.77
2018-01-15T07:50:25.874Z,10.73
2018-01-15T07:52:53.314Z,9.90
2018-01-15T07:55:20.758Z,8.53
2018-01-15T07:57:48.401Z,9.37
2018-01-15T08:00:16.627Z,10.77
2018-01-15T08:02:44.082Z,8.73
2018-01-15T08:05:11.524Z,8.07
2018-01-15T08:07:38.971Z,11.40
2018-01-15T08:10:06.428Z,10.07
2018-01-15T08:12:33.868Z,9.40
2018-01-15T08:15:02.084Z,10.33
2018-01-15T08:17:29.534Z,10.30
2018-01-15T08:19:56.992Z,10.90
2018-01-15T08:22:24.434Z,10.17
2018-01-15T08:24:51.886Z,10.73
2018-01-15T08:27:19.330Z,9.97
2018-01-15T08:29:47.552Z,10.83
2018-01-15T08:32:14.986Z,9.47
2018-01-15T08:34:42.434Z,9.87
2018-01-15T08:37:09.870Z,10.00
2018-01-15T08:39:38.090Z,11.03
2018-01-15T08:42:05.547Z,9.87
2018-01-15T08:44:33.018Z,11.50
2018-01-15T08:47:00.462Z,11.40
2018-01-15T08:49:27.919Z,9.13
2018-01-15T08:51:55.375Z,9.60
2018-01-15T08:54:22.834Z,10.60
2018-01-15T08:56:50.267Z,10.40
2018-01-15T08:59:17.718Z,10.93
2018-01-15T09:01:45.158Z,11.50
2018-01-15T09:04:13.427Z,12.03
2018-01-15T09:06:40.809Z,9.10
2018-01-15T09:09:08.250Z,10.50
2018-01-15T09:11:36.478Z,10.53
2018-01-15T09:14:03.926Z,10.23
2018-01-15T09:16:31.382Z,12.13
2018-01-15T09:18:58.837Z,11.10
2018-01-15T09:21:26.311Z,10.47
2018-01-15T09:23:53.756Z,10.60
2018-01-15T09:26:21.200Z,11.33
2018-01-15T09:28:48.638Z,10.27
2018-01-15T09:31:16.090Z,9.30
2018-01-15T09:33:44.299Z,12.00
2018-01-15T09:36:11.745Z,10.53
2018-01-15T09:38:39.182Z,11.10
2018-01-15T09:41:07.389Z,11.50
2018-01-15T09:43:34.812Z,9.60
2018-01-15T09:46:02.266Z,9.67
2018-01-15T09:48:30.474Z,8.70
2018-01-15T09:50:57.921Z,9.50
2018-01-15T09:53:25.362Z,10.80
2018-01-15T09:55:52.822Z,11.80
2018-01-15T09:58:20.263Z,10.20
2018-01-15T10:00:48.478Z,12.83
2018-01-15T10:03:15.931Z,11.33
2018-01-15T10:05:43.388Z,12.40
2018-01-15T10:08:10.835Z,10.10
2018-01-15T10:10:38.282Z,9.60
2018-01-15T10:13:05.720Z,10.77
2018-01-15T10:15:33.940Z,12.67
2018-01-15T10:18:01.377Z,11.13
2018-01-15T10:20:28.835Z,11.50
2018-01-15T10:22:56.274Z,10.60
2018-01-15T10:25:24.497Z,13.03
2018-01-15T10:27:51.929Z,10.93
2018-01-15T10:30:19.468Z,12.73
2018-01-15T10:32:47.689Z,10.87
2018-01-15T10:35:15.134Z,11.60
2018-01-15T10:37:42.590Z,12.57
2018-01-15T10:40:10.030Z,12.20
2018-01-15T10:42:37.485Z,12.03
2018-01-15T10:45:04.935Z,10.70
2018-01-15T10:47:32.372Z,10.93
2018-01-15T10:50:00.594Z,11.90
2018-01-15T10:52:28.048Z,10.63
2018-01-15T10:54:55.511Z,10.90
2018-01-15T10:57:22.927Z,12.43
2018-01-15T10:59:51.139Z,11.67
2018-01-15T11:02:18.585Z,11.90
2018-01-15T11:04:46.016Z,10.53
2018-01-15T11:07:14.228Z,11.50
2018-01-15T11:09:41.687Z,11.90
2018-01-15T11:12:09.177Z,9.90
2018-01-15T11:14:36.576Z,12.30
2018-01-15T11:17:04.034Z,10.93
2018-01-15T11:19:31.478Z,10.40
2018-01-15T11:21:59.689Z,12.37
2018-01-15T11:24:27.141Z,11.27
2018-01-15T11:26:54.592Z,11.70
2018-01-15T11:29:22.026Z,11.83
2018-01-15T11:31:50.246Z,11.10
2018-01-15T11:34:17.694Z,9.40
2018-01-15T11:36:45.151Z,11.77
2018-01-15T11:39:12.609Z,11.03
2018-01-15T11:41:40.060Z,11.27
2018-01-15T11:44:07.498Z,10.40
2018-01-15T11:46:34.951Z,10.67
2018-01-15T11:49:02.390Z,13.20
2018-01-15T11:51:30.609Z,12.40
2018-01-15T11:53:58.045Z,11.27
2018-01-15T11:56:25.498Z,11.63
2018-01-15T11:58:52.944Z,10.43
2018-01-15T12:01:21.152Z,11.00
2018-01-15T12:03:48.610Z,10.43
2018-01-15T12:06:16.057Z,9.37
2018-01-15T12:08:43.521Z,10.87
2018-01-15T12:11:10.962Z,11.53
2018-01-15T12:13:38.413Z,10.97
2018-01-15T12:16:05.862Z,11.33
2018-01-15T12:18:34.087Z,10.37
2018-01-15T12:21:01.530Z,9.47
2018-01-15T12:23:28.988Z,9.60
2018-01-15T12:25:56.435Z,9.00
2018-01-15T12:28:23.893Z,10.60
2018-01-15T12:30:51.339Z,11.00
2018-01-15T12:33:18.781Z,9.97
2018-01-15T12:35:47.007Z,9.77
2018-01-15T12:38:14.449Z,9.20
2018-01-15T12:40:41.906Z,10.47
2018-01-15T12:43:09.344Z,8.53
2018-01-15T12:45:36.796Z,10.00
2018-01-15T12:48:05.010Z,9.70
2018-01-15T12:50:32.451Z,10.33
2018-01-15T12:52:59.910Z,9.63
2018-01-15T12:55:27.362Z,8.63
2018-01-15T12:57:54.823Z,8.90
2018-01-15T13:00:22.409Z,11.10
2018-01-15T13:02:49.856Z,9.37
2018-01-15T13:05:17.327Z,7.43
2018-01-15T13:07:56.682Z,9.97
2018-01-15T13:10:24.124Z,8.93
2018-01-15T13:12:51.569Z,9.07
2018-01-15T13:15:19.013Z,9.63
2018-01-15T13:17:46.460Z,10.20
2018-01-15T13:20:13.916Z,7.67
2018-01-15T13:22:41.350Z,7.87
2018-01-15T13:25:08.806Z,7.53
2018-01-15T13:27:37.018Z,8.60
2018-01-15T13:30:04.525Z,9.40
2018-01-15T13:32:31.923Z,9.20
2018-01-15T13:34:59.369Z,7.23
2018-01-15T13:37:26.819Z,7.57
2018-01-15T13:39:54.278Z,6.20
2018-01-15T13:42:21.727Z,5.23
2018-01-15T13:44:49.169Z,5.77
2018-01-15T13:47:17.385Z,5.70
2018-01-15T13:49:44.812Z,6.30
2018-01-15T13:52:13.026Z,4.30
2018-01-15T13:54:40.473Z,4.50
2018-01-15T13:57:07.926Z,4.87
2018-01-15T13:59:35.362Z,6.50
2018-01-15T14:02:02.796Z,6.27
2018-01-15T14:04:31.014Z,5.50
2018-01-15T14:06:58.467Z,4.50
2018-01-15T14:09:25.895Z,6.20
2018-01-15T14:11:54.111Z,5.33
2018-01-15T14:14:21.569Z,5.13
2018-01-15T14:16:48.998Z,4.77
2018-01-15T14:19:16.434Z,5.37
2018-01-15T14:21:44.649Z,5.10
2018-01-15T14:24:12.077Z,4.30
2018-01-15T14:26:40.285Z,4.90
2018-01-15T14:29:07.720Z,4.97
2018-01-15T14:31:35.171Z,5.70
2018-01-15T14:34:03.378Z,9.87
2018-01-15T14:36:30.814Z,7.60
2018-01-15T14:38:58.259Z,9.00
2018-01-15T14:41:26.462Z,5.70
2018-01-15T14:43:53.921Z,5.10
2018-01-15T14:46:21.363Z,4.80
2018-01-15T14:48:48.806Z,5.80
2018-01-15T14:51:16.245Z,5.07
2018-01-15T14:53:43.681Z,5.27
2018-01-15T14:56:11.126Z,6.70
2018-01-15T14:58:38.634Z,5.57
2018-01-15T15:01:05.999Z,4.40
2018-01-15T15:03:33.452Z,4.10
2018-01-15T15:06:00.877Z,4.13
2018-01-15T15:08:28.326Z,5.37
2018-01-15T15:10:55.767Z,4.90
2018-01-15T15:13:23.210Z,5.03
2018-01-15T15:15:50.659Z,4.97
2018-01-15T15:18:18.101Z,4.90
2018-01-15T15:20:45.541Z,4.60
2018-01-15T15:23:13.756Z,4.00
2018-01-15T15:25:41.201Z,3.90
2018-01-15T15:28:08.658Z,3.60
2018-01-15T15:30:36.068Z,4.13
2018-01-15T15:33:03.514Z,3.40
2018-01-15T15:35:30.971Z,4.47
2018-01-15T15:37:58.409Z,3.80
2018-01-15T15:40:25.846Z,3.40
2018-01-15T15:42:53.310Z,3.67
2018-01-15T15:45:20.751Z,3.93
2018-01-15T15:47:48.208Z,4.00
2018-01-15T15:50:15.633Z,3.33
2018-01-15T15:52:43.852Z,3.87
2018-01-15T15:55:11.285Z,3.57
2018-01-15T15:57:38.733Z,3.43
2018-01-15T16:00:06.953Z,3.07
2018-01-15T16:02:34.391Z,3.67
2018-01-15T16:05:01.867Z,3.50
2018-01-15T16:07:29.316Z,4.00
2018-01-15T16:09:56.774Z,3.37
2018-01-15T16:12:24.204Z,3.40
2018-01-15T16:14:51.666Z,3.40
2018-01-15T16:17:19.101Z,3.23
2018-01-15T16:19:47.327Z,2.60
2018-01-15T16:22:26.489Z,2.33
2018-01-15T16:24:53.945Z,2.83
2018-01-15T16:27:21.374Z,2.20
2018-01-15T16:29:48.830Z,2.67
2018-01-15T16:32:16.260Z,2.40
2018-01-15T16:34:43.714Z,2.70
2018-01-15T16:37:11.141Z,2.03
2018-01-15T16:39:39.350Z,3.30
2018-01-15T16:42:06.782Z,2.80
2018-01-15T16:44:34.997Z,7.87
2018-01-15T16:47:02.438Z,3.47
2018-01-15T16:49:29.877Z,1.73
2018-01-15T16:51:58.079Z,1.70
2018-01-15T16:54:25.539Z,1.80
2018-01-15T16:56:52.971Z,1.90
2018-01-15T16:59:20.408Z,1.43
2018-01-15T17:01:48.625Z,1.50
2018-01-15T17:04:16.082Z,1.67
2018-01-15T17:06:43.515Z,1.50
2018-01-15T17:09:11.744Z,1.57
2018-01-15T17:11:39.187Z,1.70
2018-01-15T17:14:06.642Z,1.20
2018-01-15T17:16:34.078Z,1.20
2018-01-15T17:19:01.521Z,1.57
2018-01-15T17:21:28.957Z,1.40
2018-01-15T17:23:57.178Z,1.50
2018-01-15T17:26:24.608Z,1.33
2018-01-15T17:28:52.043Z,1.47
2018-01-15T17:31:19.486Z,1.93
2018-01-15T17:33:46.929Z,1.30
2018-01-15T17:36:14.373Z,1.73
2018-01-15T17:38:41.807Z,2.07
2018-01-15T17:41:09.258Z,2.13
2018-01-15T17:43:36.710Z,1.90
2018-01-15T17:46:04.155Z,1.83
2018-01-15T17:48:32.579Z,1.50
2018-01-15T17:51:00.007Z,1.90
2018-01-15T17:53:27.442Z,1.80
2018-01-15T17:55:55.678Z,2.07
2018-01-15T17:58:23.099Z,1.93
2018-01-15T18:00:50.564Z,2.03
2018-01-15T18:03:18.003Z,1.73
2018-01-15T18:05:46.230Z,1.30
2018-01-15T18:08:13.674Z,2.20
2018-01-15T18:10:41.136Z,1.63
2018-01-15T18:13:08.579Z,2.20
2018-01-15T18:15:36.035Z,1.90
2018-01-15T18:18:03.477Z,1.73
2018-01-15T18:20:30.934Z,1.10
2018-01-15T18:22:59.111Z,1.50
2018-01-15T18:25:26.565Z,1.50
2018-01-15T18:27:53.986Z,1.43
2018-01-15T18:30:21.435Z,1.40
2018-01-15T18:32:48.878Z,1.90
2018-01-15T18:35:16.336Z,1.77
2018-01-15T18:37:43.771Z,1.43
2018-01-15T18:40:11.208Z,1.10
2018-01-15T18:42:38.646Z,1.37
2018-01-15T18:45:06.862Z,1.40
2018-01-15T18:47:34.307Z,1.20
2018-01-15T18:50:01.744Z,1.03
2018-01-15T18:52:29.190Z,1.60
2018-01-15T18:54:57.388Z,0.83
2018-01-15T18:57:24.838Z,0.90
2018-01-15T18:59:52.261Z,1.00
2018-01-15T19:02:19.715Z,0.90
2018-01-15T19:04:47.155Z,0.87
2018-01-15T19:07:14.604Z,0.90
2018-01-15T19:09:42.042Z,0.80
2018-01-15T19:12:09.489Z,0.90
2018-01-15T19:14:36.931Z,0.90
2018-01-15T19:17:04.378Z,0.97
2018-01-15T19:19:32.595Z,0.80
2018-01-15T19:22:00.035Z,0.80
2018-01-15T19:24:27.465Z,0.60
2018-01-15T19:26:55.676Z,0.80
2018-01-15T19:29:23.105Z,0.80
2018-01-15T19:31:50.558Z,0.63
2018-01-15T19:34:18.767Z,0.80
2018-01-15T19:36:49.990Z,0.60
2018-01-15T19:39:18.006Z,0.70
2018-01-15T19:41:47.910Z,0.90
2018-01-15T19:44:21.005Z,0.80
2018-01-15T19:46:54.329Z,0.70
2018-01-15T19:49:27.495Z,0.70
2018-01-15T19:52:00.627Z,1.00
2018-01-15T19:54:34.736Z,0.50
2018-01-15T19:57:07.818Z,0.63
2018-01-15T19:59:41.036Z,0.50
2018-01-15T20:02:14.058Z,0.70
2018-01-15T20:04:47.212Z,0.50
2018-01-15T20:07:21.129Z,0.57
2018-01-15T20:09:54.171Z,0.60
2018-01-15T20:12:21.615Z,0.70
2018-01-15T20:14:49.054Z,0.60
2018-01-15T20:17:16.494Z,0.70
2018-01-15T20:19:43.934Z,0.60
2018-01-15T20:22:11.374Z,0.60
2018-01-15T20:24:39.569Z,0.50
2018-01-15T20:27:07.033Z,0.47
2018-01-15T20:29:34.455Z,0.53
2018-01-15T20:32:01.912Z,0.57
2018-01-15T20:34:29.341Z,0.60
2018-01-15T20:36:56.782Z,0.60
2018-01-15T20:39:24.235Z,0.60
2018-01-15T20:41:51.676Z,0.60
2018-01-15T20:44:19.122Z,0.60
2018-01-15T20:46:47.336Z,0.73
2018-01-15T20:49:14.781Z,0.50
2018-01-15T20:51:42.223Z,0.50
2018-01-15T20:54:09.661Z,0.50
2018-01-15T20:56:37.853Z,0.40
2018-01-15T20:59:05.298Z,0.50
2018-01-15T21:01:33.523Z,0.70
2018-01-15T21:04:00.986Z,0.50
2018-01-15T21:06:28.434Z,0.50
2018-01-15T21:08:55.877Z,0.60
2018-01-15T21:11:23.305Z,0.50
2018-01-15T21:13:50.742Z,0.50
2018-01-15T21:16:18.970Z,0.50
2018-01-15T21:18:46.422Z,0.50
2018-01-15T21:21:13.862Z,0.90
2018-01-15T21:23:41.297Z,0.50
2018-01-15T21:26:09.498Z,0.60
2018-01-15T21:28:37.004Z,0.50
2018-01-15T21:31:04.436Z,0.40
2018-01-15T21:33:31.885Z,0.50
2018-01-15T21:35:59.322Z,0.50
2018-01-15T21:38:26.757Z,0.50
2018-01-15T21:40:54.974Z,0.60
2018-01-15T21:43:22.426Z,0.50
2018-01-15T21:45:49.869Z,0.50
2018-01-15T21:48:17.310Z,0.60
2018-01-15T21:50:45.526Z,0.60
2018-01-15T21:53:12.952Z,0.50
2018-01-15T21:55:40.398Z,0.50
2018-01-15T21:58:08.603Z,0.60
2018-01-15T22:00:36.114Z,0.40
2018-01-15T22:03:03.557Z,0.87
2018-01-15T22:05:31.005Z,0.50
2018-01-15T22:07:58.442Z,0.50
2018-01-15T22:10:25.890Z,0.40
2018-01-15T22:12:53.344Z,0.50
2018-01-15T22:15:20.786Z,0.40
2018-01-15T22:17:48.209Z,0.50
2018-01-15T22:20:15.660Z,0.50
2018-01-15T22:22:43.094Z,0.40
2018-01-15T22:25:10.571Z,0.40
2018-01-15T22:27:38.037Z,0.53
2018-01-15T22:30:05.474Z,0.50
2018-01-15T22:32:32.914Z,0.50
2018-01-15T22:35:00.361Z,0.50
2018-01-15T22:37:27.802Z,0.50
2018-01-15T22:39:55.241Z,0.50
2018-01-15T22:42:23.427Z,0.50
2018-01-15T22:44:50.886Z,0.50
2018-01-15T22:47:18.326Z,0.50
2018-01-15T22:49:46.539Z,0.50
2018-01-15T22:52:13.971Z,0.50
2018-01-15T22:54:41.414Z,0.50
2018-01-15T22:57:09.626Z,0.50
2018-01-15T22:59:37.084Z,0.50
2018-01-15T23:02:04.515Z,0.50
2018-01-15T23:04:31.950Z,0.50
2018-01-15T23:06:59.391Z,0.50
2018-01-15T23:09:26.829Z,0.50
2018-01-15T23:11:54.280Z,0.50
2018-01-15T23:14:21.726Z,0.60
2018-01-15T23:16:49.173Z,0.50
2018-01-15T23:19:16.611Z,0.50
2018-01-15T23:21:44.826Z,0.60
2018-01-15T23:24:12.282Z,0.60
2018-01-15T23:26:39.717Z,0.50
2018-01-15T23:29:07.159Z,0.67
2018-01-15T23:31:35.365Z,0.50
2018-01-15T23:34:02.797Z,0.50
2018-01-15T23:36:30.232Z,0.60
2018-01-15T23:38:58.432Z,0.80
2018-01-15T23:41:25.868Z,0.60
2018-01-15T23:43:54.081Z,0.60
2018-01-15T23:46:21.531Z,0.73
2018-01-15T23:48:48.967Z,0.50
2018-01-15T23:51:16.429Z,0.60
2018-01-15T23:53:44.627Z,0.60
2018-01-15T23:56:12.074Z,0.80
2018-01-15T23:58:39.551Z,0.70
